sensor_id;sensor_type;location;lat;lon;timestamp;temperature;humidity
81307;DHT22;70775;50.846;3.224;2023-08-21T00:01:05;21.30;78.50
81307;DHT22;70775;50.846;3.224;2023-08-21T00:03:30;21.40;78.30
81307;DHT22;70775;50.846;3.224;2023-08-21T00:05:56;21.30;78.50
81307;DHT22;70775;50.846;3.224;2023-08-21T00:08:21;21.30;78.20
81307;DHT22;70775;50.846;3.224;2023-08-21T00:10:47;21.20;78.30
81307;DHT22;70775;50.846;3.224;2023-08-21T00:13:13;21.10;79.10
81307;DHT22;70775;50.846;3.224;2023-08-21T00:15:41;21.00;79.40
81307;DHT22;70775;50.846;3.224;2023-08-21T00:18:25;21.10;79.10
81307;DHT22;70775;50.846;3.224;2023-08-21T00:20:51;21.00;79.30
81307;DHT22;70775;50.846;3.224;2023-08-21T00:23:17;21.00;79.40
81307;DHT22;70775;50.846;3.224;2023-08-21T00:26:04;21.00;80.70
81307;DHT22;70775;50.846;3.224;2023-08-21T00:28:30;21.10;79.20
81307;DHT22;70775;50.846;3.224;2023-08-21T00:31:34;21.20;78.90
81307;DHT22;70775;50.846;3.224;2023-08-21T00:34:00;21.10;78.60
81307;DHT22;70775;50.846;3.224;2023-08-21T00:36:25;21.10;78.70
81307;DHT22;70775;50.846;3.224;2023-08-21T00:38:59;21.20;78.00
81307;DHT22;70775;50.846;3.224;2023-08-21T00:41:24;21.20;77.70
81307;DHT22;70775;50.846;3.224;2023-08-21T00:43:50;21.10;77.90
81307;DHT22;70775;50.846;3.224;2023-08-21T00:46:29;21.10;77.80
81307;DHT22;70775;50.846;3.224;2023-08-21T00:48:59;21.10;78.30
81307;DHT22;70775;50.846;3.224;2023-08-21T00:51:25;21.10;78.20
81307;DHT22;70775;50.846;3.224;2023-08-21T00:53:50;21.10;78.40
81307;DHT22;70775;50.846;3.224;2023-08-21T00:56:50;21.10;78.50
81307;DHT22;70775;50.846;3.224;2023-08-21T00:59:18;21.20;78.50
81307;DHT22;70775;50.846;3.224;2023-08-21T01:01:45;21.30;77.90
81307;DHT22;70775;50.846;3.224;2023-08-21T01:07:38;21.30;77.80
81307;DHT22;70775;50.846;3.224;2023-08-21T01:10:39;21.20;77.50
81307;DHT22;70775;50.846;3.224;2023-08-21T01:16:05;20.80;77.70
81307;DHT22;70775;50.846;3.224;2023-08-21T01:21:47;20.70;78.70
81307;DHT22;70775;50.846;3.224;2023-08-21T01:24:13;20.60;79.20
81307;DHT22;70775;50.846;3.224;2023-08-21T01:26:39;20.70;78.80
81307;DHT22;70775;50.846;3.224;2023-08-21T01:29:04;20.70;78.60
81307;DHT22;70775;50.846;3.224;2023-08-21T01:31:33;20.80;78.50
81307;DHT22;70775;50.846;3.224;2023-08-21T01:37:24;20.60;78.40
81307;DHT22;70775;50.846;3.224;2023-08-21T01:39:51;20.60;79.20
81307;DHT22;70775;50.846;3.224;2023-08-21T01:42:32;20.70;79.00
81307;DHT22;70775;50.846;3.224;2023-08-21T01:45:22;20.80;76.90
81307;DHT22;70775;50.846;3.224;2023-08-21T01:47:53;20.60;77.60
81307;DHT22;70775;50.846;3.224;2023-08-21T01:53:31;20.30;77.70
81307;DHT22;70775;50.846;3.224;2023-08-21T01:56:18;20.10;78.60
81307;DHT22;70775;50.846;3.224;2023-08-21T01:58:44;20.00;78.40
81307;DHT22;70775;50.846;3.224;2023-08-21T02:01:10;19.90;78.10
81307;DHT22;70775;50.846;3.224;2023-08-21T02:03:35;20.00;78.40
81307;DHT22;70775;50.846;3.224;2023-08-21T02:06:14;20.00;77.50
81307;DHT22;70775;50.846;3.224;2023-08-21T02:09:11;19.80;77.70
81307;DHT22;70775;50.846;3.224;2023-08-21T02:11:37;19.80;78.00
81307;DHT22;70775;50.846;3.224;2023-08-21T02:14:24;19.80;78.10
81307;DHT22;70775;50.846;3.224;2023-08-21T02:16:50;19.80;77.70
81307;DHT22;70775;50.846;3.224;2023-08-21T02:19:16;19.90;77.60
81307;DHT22;70775;50.846;3.224;2023-08-21T02:21:41;20.00;77.20
81307;DHT22;70775;50.846;3.224;2023-08-21T02:24:07;20.10;77.30
81307;DHT22;70775;50.846;3.224;2023-08-21T02:26:33;20.10;77.30
81307;DHT22;70775;50.846;3.224;2023-08-21T02:28:58;20.10;76.60
81307;DHT22;70775;50.846;3.224;2023-08-21T02:31:24;20.00;77.40
81307;DHT22;70775;50.846;3.224;2023-08-21T02:34:06;20.00;77.90
81307;DHT22;70775;50.846;3.224;2023-08-21T02:36:31;20.00;77.10
81307;DHT22;70775;50.846;3.224;2023-08-21T02:39:01;19.90;76.60
81307;DHT22;70775;50.846;3.224;2023-08-21T02:41:29;19.80;77.60
81307;DHT22;70775;50.846;3.224;2023-08-21T02:44:18;19.90;77.60
81307;DHT22;70775;50.846;3.224;2023-08-21T02:49:54;19.80;77.50
81307;DHT22;70775;50.846;3.224;2023-08-21T02:55:17;19.70;78.00
81307;DHT22;70775;50.846;3.224;2023-08-21T02:57:44;19.80;78.30
81307;DHT22;70775;50.846;3.224;2023-08-21T03:00:10;19.70;78.30
81307;DHT22;70775;50.846;3.224;2023-08-21T03:02:37;19.70;78.70
81307;DHT22;70775;50.846;3.224;2023-08-21T03:05:04;19.80;78.40
81307;DHT22;70775;50.846;3.224;2023-08-21T03:07:29;19.80;78.20
81307;DHT22;70775;50.846;3.224;2023-08-21T03:13:17;19.70;78.60
81307;DHT22;70775;50.846;3.224;2023-08-21T03:15:43;19.70;78.50
81307;DHT22;70775;50.846;3.224;2023-08-21T03:18:08;19.70;78.60
81307;DHT22;70775;50.846;3.224;2023-08-21T03:20:34;19.60;79.00
81307;DHT22;70775;50.846;3.224;2023-08-21T03:23:09;19.50;79.30
81307;DHT22;70775;50.846;3.224;2023-08-21T03:25:35;19.50;79.80
81307;DHT22;70775;50.846;3.224;2023-08-21T03:28:01;19.30;80.70
81307;DHT22;70775;50.846;3.224;2023-08-21T03:33:30;19.00;82.10
81307;DHT22;70775;50.846;3.224;2023-08-21T03:39:00;18.70;83.00
81307;DHT22;70775;50.846;3.224;2023-08-21T03:41:27;18.60;83.50
81307;DHT22;70775;50.846;3.224;2023-08-21T03:43:52;18.60;84.00
81307;DHT22;70775;50.846;3.224;2023-08-21T03:46:20;18.50;84.00
81307;DHT22;70775;50.846;3.224;2023-08-21T03:52:32;18.50;84.50
81307;DHT22;70775;50.846;3.224;2023-08-21T03:55:28;18.50;84.20
81307;DHT22;70775;50.846;3.224;2023-08-21T03:57:54;18.60;84.10
81307;DHT22;70775;50.846;3.224;2023-08-21T04:00:27;18.70;83.60
81307;DHT22;70775;50.846;3.224;2023-08-21T04:02:53;18.70;83.70
81307;DHT22;70775;50.846;3.224;2023-08-21T04:05:19;18.60;83.80
81307;DHT22;70775;50.846;3.224;2023-08-21T04:07:44;18.70;84.90
81307;DHT22;70775;50.846;3.224;2023-08-21T04:10:10;18.60;84.10
81307;DHT22;70775;50.846;3.224;2023-08-21T04:13:01;18.50;84.20
81307;DHT22;70775;50.846;3.224;2023-08-21T04:15:26;18.50;84.10
81307;DHT22;70775;50.846;3.224;2023-08-21T04:18:11;18.60;83.80
81307;DHT22;70775;50.846;3.224;2023-08-21T04:20:50;18.60;83.90
81307;DHT22;70775;50.846;3.224;2023-08-21T04:23:16;18.40;84.30
81307;DHT22;70775;50.846;3.224;2023-08-21T04:32:06;18.30;84.90
81307;DHT22;70775;50.846;3.224;2023-08-21T04:34:35;18.10;86.00
81307;DHT22;70775;50.846;3.224;2023-08-21T04:37:14;18.10;86.30
81307;DHT22;70775;50.846;3.224;2023-08-21T04:39:40;18.20;86.00
81307;DHT22;70775;50.846;3.224;2023-08-21T04:42:10;18.10;86.20
81307;DHT22;70775;50.846;3.224;2023-08-21T04:45:05;17.90;86.70
81307;DHT22;70775;50.846;3.224;2023-08-21T04:50:39;17.80;87.80
81307;DHT22;70775;50.846;3.224;2023-08-21T04:53:29;17.80;87.30
81307;DHT22;70775;50.846;3.224;2023-08-21T04:55:54;17.80;87.10
81307;DHT22;70775;50.846;3.224;2023-08-21T04:58:20;17.80;87.80
81307;DHT22;70775;50.846;3.224;2023-08-21T05:00:45;17.70;87.60
81307;DHT22;70775;50.846;3.224;2023-08-21T05:06:23;17.60;88.70
81307;DHT22;70775;50.846;3.224;2023-08-21T05:09:01;17.70;88.20
81307;DHT22;70775;50.846;3.224;2023-08-21T05:11:27;17.70;88.30
81307;DHT22;70775;50.846;3.224;2023-08-21T05:13:52;17.70;88.20
81307;DHT22;70775;50.846;3.224;2023-08-21T05:16:18;17.70;88.80
81307;DHT22;70775;50.846;3.224;2023-08-21T05:18:43;17.60;89.30
81307;DHT22;70775;50.846;3.224;2023-08-21T05:21:27;17.60;89.60
81307;DHT22;70775;50.846;3.224;2023-08-21T05:23:52;17.60;89.70
81307;DHT22;70775;50.846;3.224;2023-08-21T05:26:26;17.50;90.00
81307;DHT22;70775;50.846;3.224;2023-08-21T05:28:52;17.50;90.00
81307;DHT22;70775;50.846;3.224;2023-08-21T05:31:17;17.60;90.10
81307;DHT22;70775;50.846;3.224;2023-08-21T05:33:43;17.70;90.20
81307;DHT22;70775;50.846;3.224;2023-08-21T05:36:09;17.70;90.10
81307;DHT22;70775;50.846;3.224;2023-08-21T05:38:34;17.70;90.00
81307;DHT22;70775;50.846;3.224;2023-08-21T05:41:00;17.50;90.40
81307;DHT22;70775;50.846;3.224;2023-08-21T05:43:26;17.50;90.70
81307;DHT22;70775;50.846;3.224;2023-08-21T05:45:52;17.60;90.50
81307;DHT22;70775;50.846;3.224;2023-08-21T05:48:20;17.70;90.40
81307;DHT22;70775;50.846;3.224;2023-08-21T05:50:53;17.70;90.40
81307;DHT22;70775;50.846;3.224;2023-08-21T05:53:19;17.60;90.60
81307;DHT22;70775;50.846;3.224;2023-08-21T05:55:44;17.50;91.10
81307;DHT22;70775;50.846;3.224;2023-08-21T05:58:23;17.50;91.30
81307;DHT22;70775;50.846;3.224;2023-08-21T06:00:49;17.60;91.20
81307;DHT22;70775;50.846;3.224;2023-08-21T06:03:15;17.60;91.30
81307;DHT22;70775;50.846;3.224;2023-08-21T06:05:40;17.60;91.30
81307;DHT22;70775;50.846;3.224;2023-08-21T06:08:17;17.70;91.40
81307;DHT22;70775;50.846;3.224;2023-08-21T06:10:43;17.80;91.20
81307;DHT22;70775;50.846;3.224;2023-08-21T06:16:13;17.80;91.30
81307;DHT22;70775;50.846;3.224;2023-08-21T06:18:38;17.80;91.40
81307;DHT22;70775;50.846;3.224;2023-08-21T06:21:10;17.90;91.20
81307;DHT22;70775;50.846;3.224;2023-08-21T06:23:37;18.00;91.00
81307;DHT22;70775;50.846;3.224;2023-08-21T06:26:02;18.10;91.60
81307;DHT22;70775;50.846;3.224;2023-08-21T06:31:50;18.10;91.10
81307;DHT22;70775;50.846;3.224;2023-08-21T06:34:16;18.10;91.40
81307;DHT22;70775;50.846;3.224;2023-08-21T06:36:54;18.10;91.30
81307;DHT22;70775;50.846;3.224;2023-08-21T06:39:55;18.00;91.50
81307;DHT22;70775;50.846;3.224;2023-08-21T06:42:20;17.90;92.00
81307;DHT22;70775;50.846;3.224;2023-08-21T06:44:46;18.00;92.00
81307;DHT22;70775;50.846;3.224;2023-08-21T06:47:11;18.20;91.70
81307;DHT22;70775;50.846;3.224;2023-08-21T06:49:47;18.30;91.60
81307;DHT22;70775;50.846;3.224;2023-08-21T06:52:23;18.40;91.30
81307;DHT22;70775;50.846;3.224;2023-08-21T06:54:49;18.50;90.90
81307;DHT22;70775;50.846;3.224;2023-08-21T06:57:15;18.50;91.10
81307;DHT22;70775;50.846;3.224;2023-08-21T06:59:40;18.50;90.90
81307;DHT22;70775;50.846;3.224;2023-08-21T07:02:15;18.20;91.50
81307;DHT22;70775;50.846;3.224;2023-08-21T07:05:04;18.10;91.80
81307;DHT22;70775;50.846;3.224;2023-08-21T07:07:32;18.30;91.80
81307;DHT22;70775;50.846;3.224;2023-08-21T07:13:20;18.50;91.30
81307;DHT22;70775;50.846;3.224;2023-08-21T07:15:46;18.50;91.20
81307;DHT22;70775;50.846;3.224;2023-08-21T07:18:13;18.50;91.20
81307;DHT22;70775;50.846;3.224;2023-08-21T07:20:38;18.50;91.40
81307;DHT22;70775;50.846;3.224;2023-08-21T07:23:05;18.60;91.50
81307;DHT22;70775;50.846;3.224;2023-08-21T07:25:31;18.70;91.70
81307;DHT22;70775;50.846;3.224;2023-08-21T07:27:57;18.80;91.10
81307;DHT22;70775;50.846;3.224;2023-08-21T07:30:24;18.90;91.00
81307;DHT22;70775;50.846;3.224;2023-08-21T07:32:49;19.10;90.70
81307;DHT22;70775;50.846;3.224;2023-08-21T07:35:15;19.30;90.40
81307;DHT22;70775;50.846;3.224;2023-08-21T07:37:45;19.10;90.20
81307;DHT22;70775;50.846;3.224;2023-08-21T07:40:11;19.10;91.10
81307;DHT22;70775;50.846;3.224;2023-08-21T07:42:37;19.20;90.30
81307;DHT22;70775;50.846;3.224;2023-08-21T07:45:02;19.30;90.50
81307;DHT22;70775;50.846;3.224;2023-08-21T07:47:28;19.30;90.20
81307;DHT22;70775;50.846;3.224;2023-08-21T07:49:54;19.40;90.20
81307;DHT22;70775;50.846;3.224;2023-08-21T07:52:20;19.50;90.10
81307;DHT22;70775;50.846;3.224;2023-08-21T07:54:46;19.50;90.10
81307;DHT22;70775;50.846;3.224;2023-08-21T07:57:12;19.40;90.20
81307;DHT22;70775;50.846;3.224;2023-08-21T07:59:38;19.50;90.20
81307;DHT22;70775;50.846;3.224;2023-08-21T08:02:04;19.60;90.00
81307;DHT22;70775;50.846;3.224;2023-08-21T08:04:30;19.70;89.50
81307;DHT22;70775;50.846;3.224;2023-08-21T08:06:56;19.80;89.00
81307;DHT22;70775;50.846;3.224;2023-08-21T08:09:21;20.00;90.00
81307;DHT22;70775;50.846;3.224;2023-08-21T08:11:47;20.10;88.80
81307;DHT22;70775;50.846;3.224;2023-08-21T08:14:13;20.20;87.50
81307;DHT22;70775;50.846;3.224;2023-08-21T08:16:38;20.30;87.40
81307;DHT22;70775;50.846;3.224;2023-08-21T08:19:04;20.20;86.50
81307;DHT22;70775;50.846;3.224;2023-08-21T08:21:29;20.40;86.90
81307;DHT22;70775;50.846;3.224;2023-08-21T08:23:56;20.40;86.70
81307;DHT22;70775;50.846;3.224;2023-08-21T08:26:22;20.50;85.90
81307;DHT22;70775;50.846;3.224;2023-08-21T08:28:48;20.50;86.40
81307;DHT22;70775;50.846;3.224;2023-08-21T08:34:25;20.80;84.20
81307;DHT22;70775;50.846;3.224;2023-08-21T08:36:50;20.70;84.80
81307;DHT22;70775;50.846;3.224;2023-08-21T08:39:16;20.80;84.20
81307;DHT22;70775;50.846;3.224;2023-08-21T08:48:56;21.30;82.10
81307;DHT22;70775;50.846;3.224;2023-08-21T08:51:24;21.30;82.10
81307;DHT22;70775;50.846;3.224;2023-08-21T08:53:50;21.30;82.60
81307;DHT22;70775;50.846;3.224;2023-08-21T09:03:03;21.50;82.00
81307;DHT22;70775;50.846;3.224;2023-08-21T09:05:29;21.80;83.10
81307;DHT22;70775;50.846;3.224;2023-08-21T09:11:02;21.70;79.50
81307;DHT22;70775;50.846;3.224;2023-08-21T09:13:31;21.70;80.10
81307;DHT22;70775;50.846;3.224;2023-08-21T09:16:06;21.90;79.40
81307;DHT22;70775;50.846;3.224;2023-08-21T09:18:33;22.00;79.30
81307;DHT22;70775;50.846;3.224;2023-08-21T09:21:02;22.00;80.30
81307;DHT22;70775;50.846;3.224;2023-08-21T09:23:28;22.20;79.10
81307;DHT22;70775;50.846;3.224;2023-08-21T09:25:54;22.00;78.10
81307;DHT22;70775;50.846;3.224;2023-08-21T09:28:21;22.00;77.40
81307;DHT22;70775;50.846;3.224;2023-08-21T09:30:51;22.20;77.10
81307;DHT22;70775;50.846;3.224;2023-08-21T09:33:18;22.30;77.40
81307;DHT22;70775;50.846;3.224;2023-08-21T09:35:44;22.40;78.80
81307;DHT22;70775;50.846;3.224;2023-08-21T09:38:10;22.50;77.50
81307;DHT22;70775;50.846;3.224;2023-08-21T09:40:43;22.70;76.30
81307;DHT22;70775;50.846;3.224;2023-08-21T09:43:10;22.50;76.20
81307;DHT22;70775;50.846;3.224;2023-08-21T09:45:37;22.60;76.30
81307;DHT22;70775;50.846;3.224;2023-08-21T09:48:26;22.80;77.10
81307;DHT22;70775;50.846;3.224;2023-08-21T09:50:55;23.00;75.40
81307;DHT22;70775;50.846;3.224;2023-08-21T09:56:43;23.30;74.40
81307;DHT22;70775;50.846;3.224;2023-08-21T09:59:11;23.40;74.50
81307;DHT22;70775;50.846;3.224;2023-08-21T10:01:38;23.40;74.30
81307;DHT22;70775;50.846;3.224;2023-08-21T10:04:30;23.40;72.70
81307;DHT22;70775;50.846;3.224;2023-08-21T10:06:56;23.50;73.10
81307;DHT22;70775;50.846;3.224;2023-08-21T10:09:23;23.60;71.30
81307;DHT22;70775;50.846;3.224;2023-08-21T10:11:50;23.80;73.80
81307;DHT22;70775;50.846;3.224;2023-08-21T10:17:39;24.20;69.80
81307;DHT22;70775;50.846;3.224;2023-08-21T10:20:08;24.20;70.40
81307;DHT22;70775;50.846;3.224;2023-08-21T10:22:49;24.10;70.70
81307;DHT22;70775;50.846;3.224;2023-08-21T10:25:22;24.20;67.40
81307;DHT22;70775;50.846;3.224;2023-08-21T10:34:09;24.30;70.10
81307;DHT22;70775;50.846;3.224;2023-08-21T10:39:36;24.60;69.10
81307;DHT22;70775;50.846;3.224;2023-08-21T10:42:11;24.90;68.20
81307;DHT22;70775;50.846;3.224;2023-08-21T10:47:37;24.50;67.00
81307;DHT22;70775;50.846;3.224;2023-08-21T10:50:18;24.20;70.20
81307;DHT22;70775;50.846;3.224;2023-08-21T10:52:44;24.30;69.80
81307;DHT22;70775;50.846;3.224;2023-08-21T10:55:13;24.40;69.00
81307;DHT22;70775;50.846;3.224;2023-08-21T10:57:40;24.70;67.90
81307;DHT22;70775;50.846;3.224;2023-08-21T11:00:26;24.90;67.80
81307;DHT22;70775;50.846;3.224;2023-08-21T11:02:52;25.00;66.50
81307;DHT22;70775;50.846;3.224;2023-08-21T11:05:17;24.80;67.40
81307;DHT22;70775;50.846;3.224;2023-08-21T11:07:47;25.00;68.50
81307;DHT22;70775;50.846;3.224;2023-08-21T11:10:17;25.20;68.10
81307;DHT22;70775;50.846;3.224;2023-08-21T11:12:56;25.20;67.30
81307;DHT22;70775;50.846;3.224;2023-08-21T11:18:44;25.80;65.50
81307;DHT22;70775;50.846;3.224;2023-08-21T11:21:11;26.00;64.30
81307;DHT22;70775;50.846;3.224;2023-08-21T11:23:41;26.10;63.70
81307;DHT22;70775;50.846;3.224;2023-08-21T11:26:11;26.20;63.80
81307;DHT22;70775;50.846;3.224;2023-08-21T11:28:37;26.10;63.50
81307;DHT22;70775;50.846;3.224;2023-08-21T11:31:26;26.10;62.90
81307;DHT22;70775;50.846;3.224;2023-08-21T11:33:52;26.10;65.10
81307;DHT22;70775;50.846;3.224;2023-08-21T11:36:18;26.20;62.60
81307;DHT22;70775;50.846;3.224;2023-08-21T11:39:01;26.50;62.60
81307;DHT22;70775;50.846;3.224;2023-08-21T11:41:29;26.60;62.80
81307;DHT22;70775;50.846;3.224;2023-08-21T11:44:02;26.30;63.00
81307;DHT22;70775;50.846;3.224;2023-08-21T11:46:28;26.20;62.40
81307;DHT22;70775;50.846;3.224;2023-08-21T11:48:54;26.00;63.50
81307;DHT22;70775;50.846;3.224;2023-08-21T11:51:19;26.20;63.20
81307;DHT22;70775;50.846;3.224;2023-08-21T11:53:47;26.60;65.00
81307;DHT22;70775;50.846;3.224;2023-08-21T11:56:16;26.90;60.50
81307;DHT22;70775;50.846;3.224;2023-08-21T11:58:44;26.80;60.40
81307;DHT22;70775;50.846;3.224;2023-08-21T12:01:41;26.50;60.30
81307;DHT22;70775;50.846;3.224;2023-08-21T12:04:16;26.70;61.70
81307;DHT22;70775;50.846;3.224;2023-08-21T12:06:44;27.00;62.20
81307;DHT22;70775;50.846;3.224;2023-08-21T12:09:10;27.30;60.40
81307;DHT22;70775;50.846;3.224;2023-08-21T12:11:36;27.50;59.80
81307;DHT22;70775;50.846;3.224;2023-08-21T12:14:04;27.80;58.20
81307;DHT22;70775;50.846;3.224;2023-08-21T12:16:29;27.70;56.40
81307;DHT22;70775;50.846;3.224;2023-08-21T12:18:55;27.50;56.20
81307;DHT22;70775;50.846;3.224;2023-08-21T12:22:00;27.20;57.10
81307;DHT22;70775;50.846;3.224;2023-08-21T12:24:25;27.30;56.60
81307;DHT22;70775;50.846;3.224;2023-08-21T12:26:51;27.30;55.50
81307;DHT22;70775;50.846;3.224;2023-08-21T12:29:17;27.60;57.50
81307;DHT22;70775;50.846;3.224;2023-08-21T12:31:45;28.10;55.60
81307;DHT22;70775;50.846;3.224;2023-08-21T12:34:10;28.20;56.30
81307;DHT22;70775;50.846;3.224;2023-08-21T12:36:36;28.30;55.00
81307;DHT22;70775;50.846;3.224;2023-08-21T12:39:03;28.10;57.00
81307;DHT22;70775;50.846;3.224;2023-08-21T12:41:29;28.20;55.10
81307;DHT22;70775;50.846;3.224;2023-08-21T12:43:55;28.00;58.00
81307;DHT22;70775;50.846;3.224;2023-08-21T12:46:24;28.20;55.40
81307;DHT22;70775;50.846;3.224;2023-08-21T12:49:06;28.00;56.80
81307;DHT22;70775;50.846;3.224;2023-08-21T12:51:32;27.80;55.90
81307;DHT22;70775;50.846;3.224;2023-08-21T12:53:58;27.90;58.00
81307;DHT22;70775;50.846;3.224;2023-08-21T12:56:24;28.10;57.10
81307;DHT22;70775;50.846;3.224;2023-08-21T12:58:49;28.50;57.30
81307;DHT22;70775;50.846;3.224;2023-08-21T13:01:15;28.70;56.30
81307;DHT22;70775;50.846;3.224;2023-08-21T13:03:45;28.70;52.90
81307;DHT22;70775;50.846;3.224;2023-08-21T13:09:33;28.70;52.30
81307;DHT22;70775;50.846;3.224;2023-08-21T13:12:12;28.90;52.60
81307;DHT22;70775;50.846;3.224;2023-08-21T13:14:56;28.70;51.80
81307;DHT22;70775;50.846;3.224;2023-08-21T13:17:24;29.00;53.10
81307;DHT22;70775;50.846;3.224;2023-08-21T13:19:49;29.30;52.00
81307;DHT22;70775;50.846;3.224;2023-08-21T13:22:17;29.10;51.40
81307;DHT22;70775;50.846;3.224;2023-08-21T13:24:51;28.90;53.40
81307;DHT22;70775;50.846;3.224;2023-08-21T13:27:16;29.00;55.10
81307;DHT22;70775;50.846;3.224;2023-08-21T13:29:42;29.00;52.70
81307;DHT22;70775;50.846;3.224;2023-08-21T13:32:07;28.70;53.90
81307;DHT22;70775;50.846;3.224;2023-08-21T13:34:35;28.60;55.70
81307;DHT22;70775;50.846;3.224;2023-08-21T13:37:01;28.60;51.30
81307;DHT22;70775;50.846;3.224;2023-08-21T13:39:26;28.50;51.20
81307;DHT22;70775;50.846;3.224;2023-08-21T13:41:54;28.50;51.20
81307;DHT22;70775;50.846;3.224;2023-08-21T13:44:19;28.40;50.90
81307;DHT22;70775;50.846;3.224;2023-08-21T13:46:45;28.60;49.00
81307;DHT22;70775;50.846;3.224;2023-08-21T13:49:11;28.90;50.00
81307;DHT22;70775;50.846;3.224;2023-08-21T13:51:36;29.10;49.50
81307;DHT22;70775;50.846;3.224;2023-08-21T13:54:03;29.10;51.40
81307;DHT22;70775;50.846;3.224;2023-08-21T13:56:29;29.30;48.20
81307;DHT22;70775;50.846;3.224;2023-08-21T13:58:54;29.60;48.90
81307;DHT22;70775;50.846;3.224;2023-08-21T14:01:20;30.00;50.10
81307;DHT22;70775;50.846;3.224;2023-08-21T14:03:45;29.60;50.40
81307;DHT22;70775;50.846;3.224;2023-08-21T14:06:11;29.50;52.20
81307;DHT22;70775;50.846;3.224;2023-08-21T14:08:39;29.80;51.80
81307;DHT22;70775;50.846;3.224;2023-08-21T14:11:05;30.10;51.80
81307;DHT22;70775;50.846;3.224;2023-08-21T14:13:30;30.20;50.90
81307;DHT22;70775;50.846;3.224;2023-08-21T14:16:00;29.90;52.30
81307;DHT22;70775;50.846;3.224;2023-08-21T14:18:26;30.20;51.60
81307;DHT22;70775;50.846;3.224;2023-08-21T14:20:55;30.30;51.20
81307;DHT22;70775;50.846;3.224;2023-08-21T14:23:21;30.30;51.00
81307;DHT22;70775;50.846;3.224;2023-08-21T14:26:03;30.40;51.90
81307;DHT22;70775;50.846;3.224;2023-08-21T14:28:43;30.60;50.80
81307;DHT22;70775;50.846;3.224;2023-08-21T14:31:14;30.60;49.80
81307;DHT22;70775;50.846;3.224;2023-08-21T14:33:44;30.40;50.50
81307;DHT22;70775;50.846;3.224;2023-08-21T14:36:24;30.50;50.90
81307;DHT22;70775;50.846;3.224;2023-08-21T14:38:56;30.40;51.80
81307;DHT22;70775;50.846;3.224;2023-08-21T14:41:21;30.70;50.30
81307;DHT22;70775;50.846;3.224;2023-08-21T14:43:48;30.80;50.60
81307;DHT22;70775;50.846;3.224;2023-08-21T14:46:14;31.00;50.20
81307;DHT22;70775;50.846;3.224;2023-08-21T14:48:40;30.90;49.70
81307;DHT22;70775;50.846;3.224;2023-08-21T14:51:24;31.10;50.10
81307;DHT22;70775;50.846;3.224;2023-08-21T14:53:50;31.50;50.60
81307;DHT22;70775;50.846;3.224;2023-08-21T14:56:15;31.50;50.10
81307;DHT22;70775;50.846;3.224;2023-08-21T14:58:41;31.50;48.80
81307;DHT22;70775;50.846;3.224;2023-08-21T15:01:09;31.50;48.30
81307;DHT22;70775;50.846;3.224;2023-08-21T15:03:38;31.80;49.70
81307;DHT22;70775;50.846;3.224;2023-08-21T15:06:04;31.50;46.60
81307;DHT22;70775;50.846;3.224;2023-08-21T15:08:30;31.60;45.80
81307;DHT22;70775;50.846;3.224;2023-08-21T15:10:55;31.40;44.20
81307;DHT22;70775;50.846;3.224;2023-08-21T15:13:21;31.30;45.80
81307;DHT22;70775;50.846;3.224;2023-08-21T15:15:47;31.30;45.40
81307;DHT22;70775;50.846;3.224;2023-08-21T15:18:13;31.30;47.20
81307;DHT22;70775;50.846;3.224;2023-08-21T15:20:38;31.70;45.10
81307;DHT22;70775;50.846;3.224;2023-08-21T15:23:28;32.10;45.30
81307;DHT22;70775;50.846;3.224;2023-08-21T15:25:53;32.40;46.20
81307;DHT22;70775;50.846;3.224;2023-08-21T15:28:19;32.60;47.80
81307;DHT22;70775;50.846;3.224;2023-08-21T15:30:44;32.40;47.80
81307;DHT22;70775;50.846;3.224;2023-08-21T15:33:10;32.30;47.80
81307;DHT22;70775;50.846;3.224;2023-08-21T15:35:36;32.60;45.50
81307;DHT22;70775;50.846;3.224;2023-08-21T15:38:02;32.40;46.00
81307;DHT22;70775;50.846;3.224;2023-08-21T15:40:28;32.60;46.00
81307;DHT22;70775;50.846;3.224;2023-08-21T15:42:54;32.20;44.60
81307;DHT22;70775;50.846;3.224;2023-08-21T15:45:24;32.30;46.10
81307;DHT22;70775;50.846;3.224;2023-08-21T15:48:23;32.30;44.70
81307;DHT22;70775;50.846;3.224;2023-08-21T15:54:10;32.10;44.00
81307;DHT22;70775;50.846;3.224;2023-08-21T15:56:36;32.00;44.90
81307;DHT22;70775;50.846;3.224;2023-08-21T15:59:12;32.00;45.00
81307;DHT22;70775;50.846;3.224;2023-08-21T16:01:37;32.40;44.60
81307;DHT22;70775;50.846;3.224;2023-08-21T16:04:03;32.60;44.50
81307;DHT22;70775;50.846;3.224;2023-08-21T16:09:36;32.60;44.10
81307;DHT22;70775;50.846;3.224;2023-08-21T16:12:02;32.50;44.60
81307;DHT22;70775;50.846;3.224;2023-08-21T16:17:48;33.00;43.60
81307;DHT22;70775;50.846;3.224;2023-08-21T16:20:14;32.20;45.80
81307;DHT22;70775;50.846;3.224;2023-08-21T16:22:41;31.90;48.80
81307;DHT22;70775;50.846;3.224;2023-08-21T16:25:09;32.00;49.70
81307;DHT22;70775;50.846;3.224;2023-08-21T16:27:39;31.60;49.90
81307;DHT22;70775;50.846;3.224;2023-08-21T16:30:06;31.70;50.20
81307;DHT22;70775;50.846;3.224;2023-08-21T16:32:32;31.20;49.80
81307;DHT22;70775;50.846;3.224;2023-08-21T16:34:57;31.20;50.40
81307;DHT22;70775;50.846;3.224;2023-08-21T16:37:24;31.10;50.70
81307;DHT22;70775;50.846;3.224;2023-08-21T16:39:50;31.20;49.70
81307;DHT22;70775;50.846;3.224;2023-08-21T16:42:15;31.30;49.30
81307;DHT22;70775;50.846;3.224;2023-08-21T16:44:41;31.50;49.40
81307;DHT22;70775;50.846;3.224;2023-08-21T16:47:06;31.60;50.60
81307;DHT22;70775;50.846;3.224;2023-08-21T16:49:33;31.50;51.50
81307;DHT22;70775;50.846;3.224;2023-08-21T16:51:59;31.30;51.90
81307;DHT22;70775;50.846;3.224;2023-08-21T16:54:24;31.00;51.20
81307;DHT22;70775;50.846;3.224;2023-08-21T16:56:50;31.00;51.40
81307;DHT22;70775;50.846;3.224;2023-08-21T16:59:16;30.90;51.80
81307;DHT22;70775;50.846;3.224;2023-08-21T17:01:41;31.00;51.80
81307;DHT22;70775;50.846;3.224;2023-08-21T17:04:07;31.10;51.90
81307;DHT22;70775;50.846;3.224;2023-08-21T17:06:32;31.40;52.10
81307;DHT22;70775;50.846;3.224;2023-08-21T17:09:00;31.20;51.80
81307;DHT22;70775;50.846;3.224;2023-08-21T17:11:42;30.90;53.00
81307;DHT22;70775;50.846;3.224;2023-08-21T17:14:08;30.90;53.50
81307;DHT22;70775;50.846;3.224;2023-08-21T17:16:33;30.90;53.30
81307;DHT22;70775;50.846;3.224;2023-08-21T17:22:06;30.40;53.90
81307;DHT22;70775;50.846;3.224;2023-08-21T17:24:33;30.10;54.40
81307;DHT22;70775;50.846;3.224;2023-08-21T17:26:59;29.60;55.20
81307;DHT22;70775;50.846;3.224;2023-08-21T17:29:58;29.30;56.40
81307;DHT22;70775;50.846;3.224;2023-08-21T17:35:45;28.30;59.00
81307;DHT22;70775;50.846;3.224;2023-08-21T17:38:33;28.10;60.00
81307;DHT22;70775;50.846;3.224;2023-08-21T17:40:59;27.80;61.00
81307;DHT22;70775;50.846;3.224;2023-08-21T17:43:25;27.60;61.20